sensor_id;sensor_type;location;lat;lon;timestamp;P1;durP1;ratioP1;P2;durP2;ratioP2
64291;SDS011;50628;51.008;13.658;2024-01-15T00:00:22;8.87;;;5.10;;
64291;SDS011;50628;51.008;13.658;2024-01-15T00:05:25;12.87;;;6.97;;
64291;SDS011;50628;51.008;13.658;2024-01-15T00:10:27;11.43;;;6.30;;
64291;SDS011;50628;51.008;13.658;2024-01-15T00:15:29;10.77;;;6.90;;
64291;SDS011;50628;51.008;13.658;2024-01-15T00:20:32;13.77;;;6.97;;
64291;SDS011;50628;51.008;13.658;2024-01-15T00:25:34;7.40;;;4.83;;
64291;SDS011;50628;51.008;13.658;2024-01-15T00:30:36;10.17;;;5.93;;
64291;SDS011;50628;51.008;13.658;2024-01-15T00:35:39;15.00;;;7.20;;
64291;SDS011;50628;51.008;13.658;2024-01-15T00:40:41;13.97;;;6.83;;
64291;SDS011;50628;51.008;13.658;2024-01-15T00:45:43;13.13;;;6.13;;
64291;SDS011;50628;51.008;13.658;2024-01-15T00:50:46;12.53;;;6.53;;
64291;SDS011;50628;51.008;13.658;2024-01-15T00:55:48;15.17;;;7.87;;
64291;SDS011;50628;51.008;13.658;2024-01-15T01:00:50;13.23;;;7.93;;
64291;SDS011;50628;51.008;13.658;2024-01-15T01:05:53;15.40;;;9.40;;
64291;SDS011;50628;51.008;13.658;2024-01-15T01:10:55;12.23;;;5.77;;
64291;SDS011;50628;51.008;13.658;2024-01-15T01:15:57;8.73;;;5.90;;
64291;SDS011;50628;51.008;13.658;2024-01-15T01:21:00;12.17;;;6.73;;
64291;SDS011;50628;51.008;13.658;2024-01-15T01:26:03;10.43;;;5.40;;
64291;SDS011;50628;51.008;13.658;2024-01-15T01:31:05;20.37;;;8.83;;
64291;SDS011;50628;51.008;13.658;2024-01-15T01:36:10;12.43;;;7.00;;
64291;SDS011;50628;51.008;13.658;2024-01-15T01:41:11;13.87;;;6.87;;
64291;SDS011;50628;51.008;13.658;2024-01-15T01:46:13;15.97;;;8.07;;
64291;SDS011;50628;51.008;13.658;2024-01-15T01:51:17;11.80;;;7.13;;
64291;SDS011;50628;51.008;13.658;2024-01-15T01:56:19;12.80;;;7.03;;
64291;SDS011;50628;51.008;13.658;2024-01-15T02:01:21;12.60;;;6.47;;
64291;SDS011;50628;51.008;13.658;2024-01-15T02:06:25;11.13;;;6.80;;
64291;SDS011;50628;51.008;13.658;2024-01-15T02:11:27;10.93;;;6.00;;
64291;SDS011;50628;51.008;13.658;2024-01-15T02:16:29;12.97;;;6.77;;
64291;SDS011;50628;51.008;13.658;2024-01-15T02:21:32;12.90;;;7.03;;
64291;SDS011;50628;51.008;13.658;2024-01-15T02:26:35;13.90;;;7.47;;
64291;SDS011;50628;51.008;13.658;2024-01-15T02:31:38;13.40;;;7.03;;
64291;SDS011;50628;51.008;13.658;2024-01-15T02:36:40;10.03;;;7.03;;
64291;SDS011;50628;51.008;13.658;2024-01-15T02:41:43;14.40;;;6.97;;
64291;SDS011;50628;51.008;13.658;2024-01-15T02:46:45;12.50;;;6.90;;
64291;SDS011;50628;51.008;13.658;2024-01-15T02:51:47;15.37;;;8.10;;
64291;SDS011;50628;51.008;13.658;2024-01-15T02:56:50;11.17;;;6.93;;
64291;SDS011;50628;51.008;13.658;2024-01-15T03:01:52;11.97;;;6.87;;
64291;SDS011;50628;51.008;13.658;2024-01-15T03:06:54;14.77;;;7.03;;
64291;SDS011;50628;51.008;13.658;2024-01-15T03:11:57;12.50;;;7.90;;
64291;SDS011;50628;51.008;13.658;2024-01-15T03:16:59;15.77;;;8.60;;
64291;SDS011;50628;51.008;13.658;2024-01-15T03:22:02;20.23;;;8.37;;
64291;SDS011;50628;51.008;13.658;2024-01-15T03:27:05;18.07;;;8.97;;
64291;SDS011;50628;51.008;13.658;2024-01-15T03:32:07;14.00;;;7.77;;
64291;SDS011;50628;51.008;13.658;2024-01-15T03:37:09;14.10;;;8.00;;
64291;SDS011;50628;51.008;13.658;2024-01-15T03:42:12;22.70;;;10.00;;
64291;SDS011;50628;51.008;13.658;2024-01-15T03:47:14;12.23;;;7.03;;
64291;SDS011;50628;51.008;13.658;2024-01-15T03:52:16;16.20;;;8.30;;
64291;SDS011;50628;51.008;13.658;2024-01-15T03:57:19;17.57;;;9.20;;
64291;SDS011;50628;51.008;13.658;2024-01-15T04:02:21;19.23;;;9.87;;
64291;SDS011;50628;51.008;13.658;2024-01-15T04:07:23;18.47;;;9.77;;
64291;SDS011;50628;51.008;13.658;2024-01-15T04:12:26;13.20;;;7.57;;
64291;SDS011;50628;51.008;13.658;2024-01-15T04:17:28;18.70;;;9.33;;
64291;SDS011;50628;51.008;13.658;2024-01-15T04:22:30;15.20;;;8.67;;
64291;SDS011;50628;51.008;13.658;2024-01-15T04:27:33;14.77;;;8.17;;
64291;SDS011;50628;51.008;13.658;2024-01-15T04:32:35;16.63;;;8.60;;
64291;SDS011;50628;51.008;13.658;2024-01-15T04:37:37;16.00;;;9.33;;
64291;SDS011;50628;51.008;13.658;2024-01-15T04:42:40;18.27;;;9.17;;
64291;SDS011;50628;51.008;13.658;2024-01-15T04:47:42;19.67;;;8.17;;
64291;SDS011;50628;51.008;13.658;2024-01-15T04:52:44;13.17;;;7.97;;
64291;SDS011;50628;51.008;13.658;2024-01-15T04:57:47;17.60;;;8.13;;
64291;SDS011;50628;51.008;13.658;2024-01-15T05:02:49;14.47;;;7.43;;
64291;SDS011;50628;51.008;13.658;2024-01-15T05:07:51;13.97;;;7.57;;
64291;SDS011;50628;51.008;13.658;2024-01-15T05:12:54;16.53;;;8.17;;
64291;SDS011;50628;51.008;13.658;2024-01-15T05:17:56;13.90;;;7.40;;
64291;SDS011;50628;51.008;13.658;2024-01-15T05:22:57;16.60;;;8.90;;
64291;SDS011;50628;51.008;13.658;2024-01-15T05:28:01;15.23;;;8.17;;
64291;SDS011;50628;51.008;13.658;2024-01-15T05:33:03;21.00;;;9.33;;
64291;SDS011;50628;51.008;13.658;2024-01-15T05:38:07;17.67;;;9.40;;
64291;SDS011;50628;51.008;13.658;2024-01-15T05:43:10;15.40;;;7.87;;
64291;SDS011;50628;51.008;13.658;2024-01-15T05:48:12;16.90;;;8.77;;
64291;SDS011;50628;51.008;13.658;2024-01-15T05:53:14;18.07;;;8.37;;
64291;SDS011;50628;51.008;13.658;2024-01-15T05:58:17;14.73;;;7.17;;
64291;SDS011;50628;51.008;13.658;2024-01-15T06:03:19;18.00;;;8.53;;
64291;SDS011;50628;51.008;13.658;2024-01-15T06:08:21;21.97;;;8.67;;
64291;SDS011;50628;51.008;13.658;2024-01-15T06:13:24;14.83;;;8.00;;
64291;SDS011;50628;51.008;13.658;2024-01-15T06:18:26;13.07;;;7.70;;
64291;SDS011;50628;51.008;13.658;2024-01-15T06:23:28;14.77;;;7.47;;
64291;SDS011;50628;51.008;13.658;2024-01-15T06:28:31;16.37;;;7.13;;
64291;SDS011;50628;51.008;13.658;2024-01-15T06:33:33;16.73;;;7.60;;
64291;SDS011;50628;51.008;13.658;2024-01-15T06:38:35;15.67;;;8.00;;
64291;SDS011;50628;51.008;13.658;2024-01-15T06:43:38;12.63;;;6.83;;
64291;SDS011;50628;51.008;13.658;2024-01-15T06:48:41;12.30;;;6.63;;
64291;SDS011;50628;51.008;13.658;2024-01-15T06:53:43;12.90;;;6.40;;
64291;SDS011;50628;51.008;13.658;2024-01-15T06:58:46;14.37;;;7.23;;
64291;SDS011;50628;51.008;13.658;2024-01-15T07:03:48;15.87;;;5.97;;
64291;SDS011;50628;51.008;13.658;2024-01-15T07:08:50;13.83;;;5.73;;
64291;SDS011;50628;51.008;13.658;2024-01-15T07:13:53;12.60;;;6.20;;
64291;SDS011;50628;51.008;13.658;2024-01-15T07:18:55;11.63;;;5.57;;
64291;SDS011;50628;51.008;13.658;2024-01-15T07:23:57;8.50;;;5.10;;
64291;SDS011;50628;51.008;13.658;2024-01-15T07:29:00;11.83;;;5.27;;
64291;SDS011;50628;51.008;13.658;2024-01-15T07:34:03;13.50;;;5.60;;
64291;SDS011;50628;51.008;13.658;2024-01-15T07:39:05;11.73;;;6.33;;
64291;SDS011;50628;51.008;13.658;2024-01-15T07:44:08;12.30;;;5.53;;
64291;SDS011;50628;51.008;13.658;2024-01-15T07:49:10;17.73;;;5.37;;
64291;SDS011;50628;51.008;13.658;2024-01-15T07:54:12;12.47;;;5.47;;
64291;SDS011;50628;51.008;13.658;2024-01-15T07:59:15;13.00;;;5.90;;
64291;SDS011;50628;51.008;13.658;2024-01-15T08:04:18;13.30;;;6.03;;
64291;SDS011;50628;51.008;13.658;2024-01-15T08:09:20;13.20;;;5.67;;
64291;SDS011;50628;51.008;13.658;2024-01-15T08:14:23;14.43;;;6.03;;
64291;SDS011;50628;51.008;13.658;2024-01-15T08:19:25;12.87;;;6.90;;
64291;SDS011;50628;51.008;13.658;2024-01-15T08:24:27;10.73;;;5.57;;
64291;SDS011;50628;51.008;13.658;2024-01-15T08:29:30;12.07;;;5.17;;
64291;SDS011;50628;51.008;13.658;2024-01-15T08:34:33;15.27;;;5.87;;
64291;SDS011;50628;51.008;13.658;2024-01-15T08:39:35;9.73;;;5.03;;
64291;SDS011;50628;51.008;13.658;2024-01-15T08:44:40;9.77;;;5.37;;
64291;SDS011;50628;51.008;13.658;2024-01-15T08:49:43;15.53;;;6.20;;
64291;SDS011;50628;51.008;13.658;2024-01-15T08:54:46;12.03;;;5.10;;
64291;SDS011;50628;51.008;13.658;2024-01-15T08:59:49;9.77;;;5.67;;
64291;SDS011;50628;51.008;13.658;2024-01-15T09:04:51;8.97;;;4.30;;
64291;SDS011;50628;51.008;13.658;2024-01-15T09:09:53;12.00;;;4.47;;
64291;SDS011;50628;51.008;13.658;2024-01-15T09:14:56;9.90;;;5.17;;
64291;SDS011;50628;51.008;13.658;2024-01-15T09:19:58;8.40;;;3.87;;
64291;SDS011;50628;51.008;13.658;2024-01-15T09:25:00;9.70;;;4.03;;
64291;SDS011;50628;51.008;13.658;2024-01-15T09:30:04;6.80;;;3.60;;
64291;SDS011;50628;51.008;13.658;2024-01-15T09:35:07;8.87;;;4.13;;
64291;SDS011;50628;51.008;13.658;2024-01-15T09:40:12;12.73;;;3.83;;
64291;SDS011;50628;51.008;13.658;2024-01-15T09:45:16;9.73;;;3.70;;
64291;SDS011;50628;51.008;13.658;2024-01-15T09:50:18;8.23;;;3.77;;
64291;SDS011;50628;51.008;13.658;2024-01-15T09:55:20;7.67;;;3.40;;
64291;SDS011;50628;51.008;13.658;2024-01-15T10:00:24;11.13;;;3.53;;
64291;SDS011;50628;51.008;13.658;2024-01-15T10:05:27;7.60;;;3.57;;
64291;SDS011;50628;51.008;13.658;2024-01-15T10:10:29;11.83;;;4.50;;
64291;SDS011;50628;51.008;13.658;2024-01-15T10:15:34;10.37;;;4.37;;
64291;SDS011;50628;51.008;13.658;2024-01-15T10:20:38;11.57;;;4.37;;
64291;SDS011;50628;51.008;13.658;2024-01-15T10:25:41;9.00;;;4.13;;
64291;SDS011;50628;51.008;13.658;2024-01-15T10:30:44;8.00;;;3.73;;
64291;SDS011;50628;51.008;13.658;2024-01-15T10:35:46;7.30;;;3.30;;
64291;SDS011;50628;51.008;13.658;2024-01-15T10:40:50;8.53;;;3.83;;
64291;SDS011;50628;51.008;13.658;2024-01-15T10:45:54;8.87;;;3.87;;
64291;SDS011;50628;51.008;13.658;2024-01-15T10:50:56;9.63;;;4.63;;
64291;SDS011;50628;51.008;13.658;2024-01-15T10:55:59;8.53;;;3.80;;
64291;SDS011;50628;51.008;13.658;2024-01-15T11:01:03;8.70;;;4.30;;
64291;SDS011;50628;51.008;13.658;2024-01-15T11:06:15;8.27;;;4.83;;
64291;SDS011;50628;51.008;13.658;2024-01-15T11:11:18;9.80;;;4.00;;
64291;SDS011;50628;51.008;13.658;2024-01-15T11:16:23;8.50;;;4.07;;
64291;SDS011;50628;51.008;13.658;2024-01-15T11:21:25;7.87;;;4.23;;
64291;SDS011;50628;51.008;13.658;2024-01-15T11:26:30;8.57;;;3.83;;
64291;SDS011;50628;51.008;13.658;2024-01-15T11:37:04;12.87;;;6.03;;
64291;SDS011;50628;51.008;13.658;2024-01-15T11:42:06;10.20;;;4.27;;
64291;SDS011;50628;51.008;13.658;2024-01-15T11:47:11;6.83;;;4.37;;
64291;SDS011;50628;51.008;13.658;2024-01-15T11:52:14;7.47;;;3.83;;
64291;SDS011;50628;51.008;13.658;2024-01-15T11:57:20;7.23;;;3.87;;
64291;SDS011;50628;51.008;13.658;2024-01-15T12:02:28;8.53;;;4.70;;
64291;SDS011;50628;51.008;13.658;2024-01-15T12:07:30;17.13;;;4.50;;
64291;SDS011;50628;51.008;13.658;2024-01-15T12:12:35;8.53;;;4.23;;
64291;SDS011;50628;51.008;13.658;2024-01-15T12:17:46;6.70;;;3.40;;
64291;SDS011;50628;51.008;13.658;2024-01-15T12:22:49;8.33;;;3.33;;
64291;SDS011;50628;51.008;13.658;2024-01-15T12:27:51;14.03;;;4.00;;
64291;SDS011;50628;51.008;13.658;2024-01-15T12:32:54;8.97;;;4.37;;
64291;SDS011;50628;51.008;13.658;2024-01-15T12:37:56;7.73;;;3.90;;
64291;SDS011;50628;51.008;13.658;2024-01-15T12:43:00;7.40;;;3.50;;
64291;SDS011;50628;51.008;13.658;2024-01-15T12:48:04;9.60;;;4.90;;
64291;SDS011;50628;51.008;13.658;2024-01-15T12:53:06;11.37;;;4.80;;
64291;SDS011;50628;51.008;13.658;2024-01-15T12:58:08;10.10;;;4.17;;
64291;SDS011;50628;51.008;13.658;2024-01-15T13:03:12;12.23;;;5.37;;
64291;SDS011;50628;51.008;13.658;2024-01-15T13:08:14;8.73;;;5.23;;
64291;SDS011;50628;51.008;13.658;2024-01-15T13:13:16;10.07;;;4.97;;
64291;SDS011;50628;51.008;13.658;2024-01-15T13:18:19;10.13;;;4.13;;
64291;SDS011;50628;51.008;13.658;2024-01-15T13:23:21;10.83;;;5.30;;
64291;SDS011;50628;51.008;13.658;2024-01-15T13:28:23;13.73;;;4.57;;
64291;SDS011;50628;51.008;13.658;2024-01-15T13:33:26;15.13;;;6.23;;
64291;SDS011;50628;51.008;13.658;2024-01-15T13:38:28;11.87;;;5.53;;
64291;SDS011;50628;51.008;13.658;2024-01-15T13:43:36;10.13;;;6.27;;
64291;SDS011;50628;51.008;13.658;2024-01-15T13:48:40;9.70;;;4.70;;
64291;SDS011;50628;51.008;13.658;2024-01-15T13:53:42;11.40;;;5.20;;
64291;SDS011;50628;51.008;13.658;2024-01-15T13:58:44;10.33;;;5.43;;
64291;SDS011;50628;51.008;13.658;2024-01-15T14:03:47;11.77;;;5.63;;
64291;SDS011;50628;51.008;13.658;2024-01-15T14:08:49;8.17;;;5.07;;
64291;SDS011;50628;51.008;13.658;2024-01-15T14:13:51;8.10;;;5.07;;
64291;SDS011;50628;51.008;13.658;2024-01-15T14:18:54;12.77;;;6.17;;
64291;SDS011;50628;51.008;13.658;2024-01-15T14:23:56;10.67;;;5.23;;
64291;SDS011;50628;51.008;13.658;2024-01-15T14:28:58;10.07;;;5.10;;
64291;SDS011;50628;51.008;13.658;2024-01-15T14:34:01;12.13;;;5.70;;
64291;SDS011;50628;51.008;13.658;2024-01-15T14:39:04;11.60;;;6.70;;
64291;SDS011;50628;51.008;13.658;2024-01-15T14:44:06;11.80;;;5.50;;
64291;SDS011;50628;51.008;13.658;2024-01-15T14:49:09;11.10;;;6.10;;
64291;SDS011;50628;51.008;13.658;2024-01-15T14:54:11;10.73;;;5.57;;
64291;SDS011;50628;51.008;13.658;2024-01-15T14:59:12;13.10;;;6.73;;
64291;SDS011;50628;51.008;13.658;2024-01-15T15:04:16;11.73;;;5.73;;
64291;SDS011;50628;51.008;13.658;2024-01-15T15:09:18;10.70;;;5.70;;
64291;SDS011;50628;51.008;13.658;2024-01-15T15:14:20;10.03;;;6.03;;
64291;SDS011;50628;51.008;13.658;2024-01-15T15:19:23;13.27;;;6.10;;
64291;SDS011;50628;51.008;13.658;2024-01-15T15:24:25;9.57;;;5.67;;
64291;SDS011;50628;51.008;13.658;2024-01-15T15:29:27;12.10;;;5.87;;
64291;SDS011;50628;51.008;13.658;2024-01-15T15:34:30;9.13;;;5.77;;
64291;SDS011;50628;51.008;13.658;2024-01-15T15:39:32;11.17;;;6.13;;
64291;SDS011;50628;51.008;13.658;2024-01-15T15:44:34;9.40;;;5.00;;
64291;SDS011;50628;51.008;13.658;2024-01-15T15:49:37;14.37;;;6.37;;
64291;SDS011;50628;51.008;13.658;2024-01-15T15:54:39;11.00;;;4.83;;
64291;SDS011;50628;51.008;13.658;2024-01-15T15:59:41;13.67;;;5.63;;
64291;SDS011;50628;51.008;13.658;2024-01-15T16:04:44;12.77;;;5.70;;
64291;SDS011;50628;51.008;13.658;2024-01-15T16:09:46;13.73;;;6.17;;
64291;SDS011;50628;51.008;13.658;2024-01-15T16:14:48;14.03;;;5.83;;
64291;SDS011;50628;51.008;13.658;2024-01-15T16:19:51;10.30;;;6.07;;
64291;SDS011;50628;51.008;13.658;2024-01-15T16:24:53;8.30;;;5.43;;
64291;SDS011;50628;51.008;13.658;2024-01-15T16:29:55;12.53;;;6.03;;
64291;SDS011;50628;51.008;13.658;2024-01-15T16:34:58;8.00;;;5.57;;
64291;SDS011;50628;51.008;13.658;2024-01-15T16:40:00;14.00;;;7.33;;
64291;SDS011;50628;51.008;13.658;2024-01-15T16:45:02;12.93;;;6.97;;
64291;SDS011;50628;51.008;13.658;2024-01-15T16:50:06;15.20;;;7.57;;
64291;SDS011;50628;51.008;13.658;2024-01-15T16:55:09;13.63;;;7.80;;
64291;SDS011;50628;51.008;13.658;2024-01-15T17:00:11;12.17;;;6.83;;
64291;SDS011;50628;51.008;13.658;2024-01-15T17:05:14;11.63;;;7.60;;
64291;SDS011;50628;51.008;13.658;2024-01-15T17:10:16;12.90;;;6.57;;
64291;SDS011;50628;51.008;13.658;2024-01-15T17:15:18;11.83;;;6.17;;
64291;SDS011;50628;51.008;13.658;2024-01-15T17:20:22;11.43;;;5.63;;
64291;SDS011;50628;51.008;13.658;2024-01-15T17:25:24;9.23;;;5.10;;
64291;SDS011;50628;51.008;13.658;2024-01-15T17:30:26;10.27;;;5.20;;
64291;SDS011;50628;51.008;13.658;2024-01-15T17:35:29;9.07;;;4.60;;
64291;SDS011;50628;51.008;13.658;2024-01-15T17:40:31;8.37;;;4.87;;
64291;SDS011;50628;51.008;13.658;2024-01-15T17:45:34;8.73;;;5.20;;
64291;SDS011;50628;51.008;13.658;2024-01-15T17:50:38;12.07;;;5.80;;
64291;SDS011;50628;51.008;13.658;2024-01-15T17:55:40;10.30;;;5.60;;
64291;SDS011;50628;51.008;13.658;2024-01-15T18:00:41;9.70;;;5.27;;
64291;SDS011;50628;51.008;13.658;2024-01-15T18:05:45;10.77;;;5.17;;
64291;SDS011;50628;51.008;13.658;2024-01-15T18:10:46;7.07;;;4.73;;
64291;SDS011;50628;51.008;13.658;2024-01-15T18:15:52;7.93;;;5.50;;
64291;SDS011;50628;51.008;13.658;2024-01-15T18:20:58;9.50;;;5.37;;
64291;SDS011;50628;51.008;13.658;2024-01-15T18:26:00;10.50;;;6.10;;
64291;SDS011;50628;51.008;13.658;2024-01-15T18:31:03;9.67;;;6.53;;
64291;SDS011;50628;51.008;13.658;2024-01-15T18:36:07;10.87;;;6.40;;
64291;SDS011;50628;51.008;13.658;2024-01-15T18:41:19;10.23;;;5.67;;
64291;SDS011;50628;51.008;13.658;2024-01-15T18:46:21;11.27;;;5.83;;
64291;SDS011;50628;51.008;13.658;2024-01-15T18:51:24;11.80;;;6.50;;
64291;SDS011;50628;51.008;13.658;2024-01-15T18:56:26;9.47;;;6.07;;
64291;SDS011;50628;51.008;13.658;2024-01-15T19:01:29;10.70;;;6.50;;
64291;SDS011;50628;51.008;13.658;2024-01-15T19:06:33;11.87;;;6.97;;
64291;SDS011;50628;51.008;13.658;2024-01-15T19:11:35;10.80;;;6.63;;
64291;SDS011;50628;51.008;13.658;2024-01-15T19:16:37;8.90;;;5.20;;
64291;SDS011;50628;51.008;13.658;2024-01-15T19:21:40;9.20;;;5.47;;
64291;SDS011;50628;51.008;13.658;2024-01-15T19:26:43;7.40;;;5.13;;
64291;SDS011;50628;51.008;13.658;2024-01-15T19:31:44;8.70;;;6.27;;
64291;SDS011;50628;51.008;13.658;2024-01-15T19:36:48;12.43;;;5.93;;
64291;SDS011;50628;51.008;13.658;2024-01-15T19:41:50;6.37;;;4.73;;
64291;SDS011;50628;51.008;13.658;2024-01-15T19:46:52;8.23;;;4.70;;
64291;SDS011;50628;51.008;13.658;2024-01-15T19:51:56;8.50;;;5.13;;
64291;SDS011;50628;51.008;13.658;2024-01-15T19:56:59;8.77;;;4.57;;
64291;SDS011;50628;51.008;13.658;2024-01-15T20:02:00;8.87;;;4.70;;
64291;SDS011;50628;51.008;13.658;2024-01-15T20:07:04;6.60;;;4.53;;
64291;SDS011;50628;51.008;13.658;2024-01-15T20:12:08;7.50;;;3.40;;
64291;SDS011;50628;51.008;13.658;2024-01-15T20:17:10;9.20;;;5.07;;
64291;SDS011;50628;51.008;13.658;2024-01-15T20:22:14;9.47;;;4.43;;
64291;SDS011;50628;51.008;13.658;2024-01-15T20:27:18;5.60;;;3.77;;
64291;SDS011;50628;51.008;13.658;2024-01-15T20:32:20;8.60;;;3.80;;
64291;SDS011;50628;51.008;13.658;2024-01-15T20:37:23;14.50;;;5.60;;
64291;SDS011;50628;51.008;13.658;2024-01-15T20:42:25;6.43;;;2.97;;
64291;SDS011;50628;51.008;13.658;2024-01-15T20:47:27;5.17;;;3.00;;
64291;SDS011;50628;51.008;13.658;2024-01-15T20:52:33;8.33;;;4.10;;
64291;SDS011;50628;51.008;13.658;2024-01-15T20:57:35;5.73;;;3.43;;
64291;SDS011;50628;51.008;13.658;2024-01-15T21:02:37;5.90;;;3.60;;
64291;SDS011;50628;51.008;13.658;2024-01-15T21:07:40;4.73;;;2.80;;
64291;SDS011;50628;51.008;13.658;2024-01-15T21:12:43;5.57;;;3.33;;
64291;SDS011;50628;51.008;13.658;2024-01-15T21:17:45;5.00;;;3.07;;
64291;SDS011;50628;51.008;13.658;2024-01-15T21:22:48;4.37;;;2.77;;
64291;SDS011;50628;51.008;13.658;2024-01-15T21:27:50;4.17;;;2.47;;
64291;SDS011;50628;51.008;13.658;2024-01-15T21:32:52;3.43;;;1.63;;
64291;SDS011;50628;51.008;13.658;2024-01-15T21:37:55;2.70;;;1.77;;
64291;SDS011;50628;51.008;13.658;2024-01-15T21:42:57;5.13;;;2.63;;
64291;SDS011;50628;51.008;13.658;2024-01-15T21:47:59;4.27;;;2.03;;
64291;SDS011;50628;51.008;13.658;2024-01-15T21:53:02;2.67;;;2.27;;
64291;SDS011;50628;51.008;13.658;2024-01-15T21:58:04;1.87;;;1.20;;
64291;SDS011;50628;51.008;13.658;2024-01-15T22:03:06;4.97;;;2.57;;
64291;SDS011;50628;51.008;13.658;2024-01-15T22:08:10;3.93;;;2.20;;
64291;SDS011;50628;51.008;13.658;2024-01-15T22:13:12;2.17;;;1.20;;
64291;SDS011;50628;51.008;13.658;2024-01-15T22:18:14;2.20;;;1.93;;
64291;SDS011;50628;51.008;13.658;2024-01-15T22:23:17;3.73;;;2.97;;
64291;SDS011;50628;51.008;13.658;2024-01-15T22:28:19;4.17;;;2.23;;
64291;SDS011;50628;51.008;13.658;2024-01-15T22:33:20;4.13;;;2.30;;
64291;SDS011;50628;51.008;13.658;2024-01-15T22:38:24;5.93;;;2.30;;
64291;SDS011;50628;51.008;13.658;2024-01-15T22:43:25;12.00;;;2.93;;
64291;SDS011;50628;51.008;13.658;2024-01-15T22:48:28;4.37;;;1.37;;
64291;SDS011;50628;51.008;13.658;2024-01-15T22:53:31;3.90;;;0.90;;
64291;SDS011;50628;51.008;13.658;2024-01-15T22:58:33;2.57;;;1.30;;
64291;SDS011;50628;51.008;13.658;2024-01-15T23:03:35;7.40;;;1.43;;
64291;SDS011;50628;51.008;13.658;2024-01-15T23:08:38;6.70;;;1.13;;
64291;SDS011;50628;51.008;13.658;2024-01-15T23:13:40;6.20;;;1.90;;
64291;SDS011;50628;51.008;13.658;2024-01-15T23:18:42;5.13;;;1.40;;
64291;SDS011;50628;51.008;13.658;2024-01-15T23:23:45;5.00;;;1.50;;
64291;SDS011;50628;51.008;13.658;2024-01-15T23:28:48;6.53;;;1.13;;
64291;SDS011;50628;51.008;13.658;2024-01-15T23:33:50;4.07;;;1.27;;
64291;SDS011;50628;51.008;13.658;2024-01-15T23:38:54;5.53;;;1.63;;
64291;SDS011;50628;51.008;13.658;2024-01-15T23:43:56;4.87;;;0.77;;
64291;SDS011;50628;51.008;13.658;2024-01-15T23:48:58;8.73;;;2.00;;
64291;SDS011;50628;51.008;13.658;2024-01-15T23:54:01;6.90;;;1.70;;
64291;SDS011;50628;51.008;13.658;2024-01-15T23:59:03;6.43;;;1.47;;
